Time;durP1;ratioP1;P1;durP2;ratioP2;P2;SDS_P1;SDS_P2;PMS_P1;PMS_P2;Temp;Humidity;BMP_temperature;BMP_pressure;BME280_temperature;BME280_humidity;BME280_pressure;Samples;Min_cycle;Max_cycle;Signal;HPM_P1;HPM_P2
2020/12/18 00:01:19;;;;;;;13.00;7.63;;;;;;;;;;5092045;28;20452;-73
2020/12/18 00:03:48;;;;;;;11.53;7.27;;;;;;;;;;5079070;28;20904;-72
2020/12/18 00:06:15;;;;;;;17.33;8.27;;;;;;;;;;5078689;28;20467;-73
2020/12/18 00:08:43;;;;;;;12.00;7.03;;;;;;;;;;5094358;28;20464;-73
2020/12/18 00:11:15;;;;;;;9.93;6.60;;;;;;;;;;5099335;28;20452;-73
2020/12/18 00:13:43;;;;;;;14.80;6.60;;;;;;;;;;5099339;28;20452;-73
2020/12/18 00:16:10;;;;;;;9.03;6.53;;;;;;;;;;5094801;28;20488;-74
2020/12/18 00:18:37;;;;;;;12.60;7.17;;;;;;;;;;5078075;28;20453;-73
2020/12/18 00:21:05;;;;;;;13.57;7.20;;;;;;;;;;5078650;28;20461;-73
2020/12/18 00:23:33;;;;;;;9.77;5.90;;;;;;;;;;5078840;28;20457;-74
2020/12/18 00:26:01;;;;;;;9.87;6.90;;;;;;;;;;5078382;28;20454;-73
2020/12/18 00:28:29;;;;;;;12.40;5.80;;;;;;;;;;5078027;28;20459;-73
2020/12/18 00:30:56;;;;;;;13.83;6.20;;;;;;;;;;5078441;28;20857;-73
2020/12/18 00:33:24;;;;;;;12.80;7.90;;;;;;;;;;5078214;28;20445;-73
2020/12/18 00:35:51;;;;;;;10.17;5.93;;;;;;;;;;5077836;28;20492;-74
2020/12/18 00:38:19;;;;;;;10.00;6.83;;;;;;;;;;5078218;28;20555;-73
2020/12/18 00:40:46;;;;;;;13.70;7.10;;;;;;;;;;5078414;28;20460;-73
2020/12/18 00:43:14;;;;;;;11.13;6.40;;;;;;;;;;5078049;28;20460;-74
2020/12/18 00:45:43;;;;;;;9.20;6.80;;;;;;;;;;5078868;28;20472;-74
2020/12/18 00:48:13;;;;;;;11.23;6.13;;;;;;;;;;5077703;28;21196;-73
2020/12/18 00:50:40;;;;;;;9.77;6.20;;;;;;;;;;5078006;28;20526;-73
2020/12/18 00:53:11;;;;;;;10.83;6.03;;;;;;;;;;5077516;28;20526;-73
2020/12/18 00:55:38;;;;;;;9.43;5.70;;;;;;;;;;5077686;28;20516;-73
2020/12/18 00:58:05;;;;;;;8.47;6.80;;;;;;;;;;5077403;28;20480;-74
2020/12/18 01:00:34;;;;;;;10.00;5.80;;;;;;;;;;5077711;28;20465;-74
2020/12/18 01:03:02;;;;;;;9.33;6.47;;;;;;;;;;5077360;28;20453;-74
2020/12/18 01:05:30;;;;;;;10.23;6.53;;;;;;;;;;5077235;28;20517;-73
2020/12/18 01:07:57;;;;;;;6.43;5.43;;;;;;;;;;5077371;28;20596;-73
2020/12/18 01:10:24;;;;;;;11.20;5.70;;;;;;;;;;5076717;28;20449;-73
2020/12/18 01:12:52;;;;;;;14.57;7.20;;;;;;;;;;5090440;28;20486;-74
2020/12/18 01:15:19;;;;;;;7.03;6.00;;;;;;;;;;5097569;28;20494;-73
2020/12/18 01:17:46;;;;;;;17.03;7.10;;;;;;;;;;5098357;28;20518;-73
2020/12/18 01:20:15;;;;;;;9.80;6.90;;;;;;;;;;5097082;28;20860;-73
2020/12/18 01:22:42;;;;;;;7.93;6.20;;;;;;;;;;5097376;28;20727;-73
2020/12/18 01:25:09;;;;;;;12.13;6.17;;;;;;;;;;5097673;28;20462;-73
2020/12/18 01:27:38;;;;;;;13.40;7.10;;;;;;;;;;5097163;28;20757;-73
2020/12/18 01:30:08;;;;;;;9.90;6.37;;;;;;;;;;5091344;28;20452;-73
2020/12/18 01:32:38;;;;;;;9.50;6.47;;;;;;;;;;5077561;28;20476;-74
2020/12/18 01:35:07;;;;;;;16.53;7.57;;;;;;;;;;5077182;28;20491;-73
2020/12/18 01:37:35;;;;;;;10.60;6.57;;;;;;;;;;5077481;28;20471;-73
2020/12/18 01:40:04;;;;;;;9.30;5.90;;;;;;;;;;5080323;28;20531;-73
2020/12/18 01:42:51;;;;;;;11.43;6.43;;;;;;;;;;5091220;28;20452;-73
2020/12/18 01:45:20;;;;;;;11.00;6.47;;;;;;;;;;5078509;28;20462;-74
2020/12/18 01:47:50;;;;;;;11.47;6.43;;;;;;;;;;5077055;28;21086;-74
2020/12/18 01:50:17;;;;;;;11.67;6.50;;;;;;;;;;5078433;28;20816;-74
2020/12/18 01:52:46;;;;;;;8.53;5.73;;;;;;;;;;5082468;28;20460;-73
2020/12/18 01:55:13;;;;;;;12.77;5.77;;;;;;;;;;5096147;28;20759;-74
2020/12/18 01:57:42;;;;;;;11.73;6.70;;;;;;;;;;5077101;28;20472;-74
2020/12/18 02:00:10;;;;;;;9.23;6.50;;;;;;;;;;5077186;28;20457;-74
2020/12/18 02:02:37;;;;;;;9.03;5.60;;;;;;;;;;5078655;28;20461;-73
2020/12/18 02:05:05;;;;;;;9.53;5.90;;;;;;;;;;5077029;28;20453;-73
2020/12/18 02:07:33;;;;;;;10.70;6.30;;;;;;;;;;5076655;28;20464;-73
2020/12/18 02:10:01;;;;;;;8.43;5.47;;;;;;;;;;5076906;28;20479;-73
2020/12/18 02:12:29;;;;;;;7.60;5.53;;;;;;;;;;5077123;28;20468;-73
2020/12/18 02:14:56;;;;;;;8.20;6.00;;;;;;;;;;5076829;28;20485;-74
2020/12/18 02:17:24;;;;;;;10.10;6.17;;;;;;;;;;5080706;28;20460;-73
2020/12/18 02:19:52;;;;;;;10.53;6.50;;;;;;;;;;5080943;28;20795;-73
2020/12/18 02:22:20;;;;;;;10.97;5.67;;;;;;;;;;5081115;28;20476;-73
2020/12/18 02:24:53;;;;;;;10.20;5.30;;;;;;;;;;5091014;28;20521;-74
2020/12/18 02:27:22;;;;;;;9.43;6.20;;;;;;;;;;5099970;28;20456;-74
2020/12/18 02:29:51;;;;;;;7.33;5.80;;;;;;;;;;5098398;28;20455;-73
2020/12/18 02:32:18;;;;;;;9.97;6.53;;;;;;;;;;5101215;28;20475;-73
2020/12/18 02:34:46;;;;;;;9.60;7.00;;;;;;;;;;5100789;28;20914;-73
2020/12/18 02:37:13;;;;;;;8.20;5.20;;;;;;;;;;5100685;28;20452;-73
2020/12/18 02:39:40;;;;;;;18.33;5.87;;;;;;;;;;5100139;28;20455;-73
2020/12/18 02:42:08;;;;;;;12.50;6.70;;;;;;;;;;5100886;28;20740;-73
2020/12/18 02:44:36;;;;;;;9.93;6.50;;;;;;;;;;5100616;28;20469;-73
2020/12/18 02:47:03;;;;;;;9.70;6.10;;;;;;;;;;5098939;28;20468;-73
2020/12/18 02:49:32;;;;;;;13.87;6.50;;;;;;;;;;5100716;28;20456;-73
2020/12/18 02:52:00;;;;;;;8.50;7.23;;;;;;;;;;5101027;28;20467;-73
2020/12/18 02:54:27;;;;;;;8.83;5.87;;;;;;;;;;5099095;28;20895;-73
2020/12/18 02:56:54;;;;;;;8.93;6.50;;;;;;;;;;5100463;28;20483;-73
2020/12/18 02:59:25;;;;;;;13.53;7.00;;;;;;;;;;5100841;28;20471;-73
2020/12/18 03:01:53;;;;;;;10.03;7.40;;;;;;;;;;5100472;28;20460;-73
2020/12/18 03:04:21;;;;;;;12.00;6.50;;;;;;;;;;5100499;28;20495;-73
2020/12/18 03:06:48;;;;;;;8.60;6.40;;;;;;;;;;5100216;28;20748;-73
2020/12/18 03:09:15;;;;;;;9.10;6.60;;;;;;;;;;5096317;28;20517;-73
2020/12/18 03:11:43;;;;;;;8.23;6.20;;;;;;;;;;5080091;28;20460;-73
2020/12/18 03:14:10;;;;;;;8.83;6.17;;;;;;;;;;5098728;28;20734;-73
2020/12/18 03:16:38;;;;;;;11.40;7.10;;;;;;;;;;5100031;28;20549;-73
2020/12/18 03:19:07;;;;;;;10.87;7.10;;;;;;;;;;5099980;28;20998;-73
2020/12/18 03:21:34;;;;;;;12.27;6.83;;;;;;;;;;5094452;28;20464;-73
2020/12/18 03:24:06;;;;;;;11.23;6.80;;;;;;;;;;5079740;28;20456;-73
2020/12/18 03:26:33;;;;;;;13.10;6.90;;;;;;;;;;5079086;28;20536;-73
2020/12/18 03:29:00;;;;;;;10.33;6.67;;;;;;;;;;5096149;28;20481;-73
2020/12/18 03:31:28;;;;;;;8.40;6.37;;;;;;;;;;5099813;28;20464;-73
2020/12/18 03:33:55;;;;;;;13.57;6.67;;;;;;;;;;5099204;28;20456;-72
2020/12/18 03:36:24;;;;;;;10.80;6.87;;;;;;;;;;5092468;28;20496;-73
2020/12/18 03:38:51;;;;;;;8.50;5.47;;;;;;;;;;5078264;28;20452;-73
2020/12/18 03:41:18;;;;;;;9.80;6.80;;;;;;;;;;5079459;28;20743;-73
2020/12/18 03:43:46;;;;;;;9.20;6.37;;;;;;;;;;5079566;28;20875;-73
2020/12/18 03:46:15;;;;;;;9.33;6.47;;;;;;;;;;5080088;28;20730;-73
2020/12/18 03:48:42;;;;;;;7.70;6.60;;;;;;;;;;5081154;28;20445;-73
2020/12/18 03:51:10;;;;;;;15.80;6.50;;;;;;;;;;5079337;28;20461;-73
2020/12/18 03:53:38;;;;;;;11.40;6.40;;;;;;;;;;5079473;28;20453;-73
2020/12/18 03:56:06;;;;;;;12.23;6.90;;;;;;;;;;5079120;28;20480;-73
2020/12/18 03:58:33;;;;;;;11.13;5.80;;;;;;;;;;5078708;28;20882;-73
2020/12/18 04:01:01;;;;;;;10.03;6.40;;;;;;;;;;5078845;28;20496;-73
2020/12/18 04:03:28;;;;;;;11.10;6.60;;;;;;;;;;5078321;28;20460;-73
2020/12/18 04:05:55;;;;;;;8.80;7.00;;;;;;;;;;5095296;28;20478;-73
2020/12/18 04:08:23;;;;;;;10.10;6.30;;;;;;;;;;5099065;28;20460;-73
2020/12/18 04:10:51;;;;;;;12.03;5.70;;;;;;;;;;5098814;28;20887;-73
2020/12/18 04:13:21;;;;;;;13.63;5.90;;;;;;;;;;5099105;28;20528;-73
2020/12/18 04:15:48;;;;;;;7.40;5.50;;;;;;;;;;5099271;28;20839;-73
2020/12/18 04:18:17;;;;;;;9.70;5.60;;;;;;;;;;5098420;28;20460;-75
2020/12/18 04:20:45;;;;;;;8.20;6.43;;;;;;;;;;5098483;28;20459;-73
2020/12/18 04:23:13;;;;;;;7.50;4.87;;;;;;;;;;5097472;28;20816;-73
2020/12/18 04:25:40;;;;;;;11.77;5.60;;;;;;;;;;5078866;28;20452;-73
2020/12/18 04:28:09;;;;;;;9.53;5.20;;;;;;;;;;5078444;28;20526;-73
2020/12/18 04:30:36;;;;;;;9.40;5.13;;;;;;;;;;5078685;28;20522;-73
2020/12/18 04:33:04;;;;;;;7.70;5.00;;;;;;;;;;5078813;28;20449;-73
2020/12/18 04:35:31;;;;;;;11.97;5.70;;;;;;;;;;5097331;28;20546;-73
2020/12/18 04:37:58;;;;;;;9.13;4.50;;;;;;;;;;5096642;28;20452;-73
2020/12/18 04:40:28;;;;;;;7.87;4.33;;;;;;;;;;5097144;28;20459;-73
2020/12/18 04:42:56;;;;;;;11.33;5.10;;;;;;;;;;5097310;28;20465;-73
2020/12/18 04:45:24;;;;;;;7.03;4.60;;;;;;;;;;5078652;28;20544;-73
2020/12/18 04:47:55;;;;;;;6.53;4.53;;;;;;;;;;5077694;28;20736;-73
2020/12/18 04:50:22;;;;;;;9.33;5.40;;;;;;;;;;5080292;28;20458;-73
2020/12/18 04:52:49;;;;;;;9.50;4.73;;;;;;;;;;5098455;28;20794;-73
2020/12/18 04:55:19;;;;;;;7.13;4.60;;;;;;;;;;5098125;28;20556;-73
2020/12/18 04:57:47;;;;;;;8.90;4.77;;;;;;;;;;5095868;28;20460;-73
2020/12/18 05:00:15;;;;;;;6.50;5.57;;;;;;;;;;5095455;28;20562;-74
2020/12/18 05:02:43;;;;;;;10.57;4.50;;;;;;;;;;5080061;28;20775;-74
2020/12/18 05:05:10;;;;;;;5.90;3.93;;;;;;;;;;5078591;28;20457;-73
2020/12/18 05:07:38;;;;;;;7.10;5.33;;;;;;;;;;5077624;28;20468;-73
2020/12/18 05:10:10;;;;;;;11.77;5.80;;;;;;;;;;5090107;28;20460;-73
2020/12/18 05:12:38;;;;;;;12.00;4.13;;;;;;;;;;5079324;28;20471;-73
2020/12/18 05:15:06;;;;;;;7.33;4.40;;;;;;;;;;5077657;28;20493;-73
2020/12/18 05:17:34;;;;;;;7.77;5.47;;;;;;;;;;5077338;28;20453;-74
2020/12/18 05:20:02;;;;;;;7.57;4.67;;;;;;;;;;5077285;28;20457;-74
2020/12/18 05:22:30;;;;;;;9.37;4.87;;;;;;;;;;5077323;28;20885;-73
2020/12/18 05:24:57;;;;;;;17.53;6.60;;;;;;;;;;5077761;28;20461;-73
2020/12/18 05:27:24;;;;;;;6.60;4.47;;;;;;;;;;5077215;28;20460;-73
2020/12/18 05:29:52;;;;;;;10.80;4.50;;;;;;;;;;5076170;28;20522;-73
2020/12/18 05:32:20;;;;;;;9.70;5.63;;;;;;;;;;5077789;28;20539;-74
2020/12/18 05:34:47;;;;;;;13.40;5.73;;;;;;;;;;5088628;28;20465;-73
2020/12/18 05:37:16;;;;;;;10.13;6.00;;;;;;;;;;5085023;28;21101;-73
2020/12/18 05:39:44;;;;;;;9.77;5.40;;;;;;;;;;5078195;28;20893;-73
2020/12/18 05:42:11;;;;;;;12.00;5.70;;;;;;;;;;5084107;28;20487;-73
2020/12/18 05:44:38;;;;;;;8.90;5.83;;;;;;;;;;5087635;28;20465;-74
2020/12/18 05:47:15;;;;;;;9.73;5.90;;;;;;;;;;5076609;28;20460;-72
2020/12/18 05:49:42;;;;;;;11.50;6.40;;;;;;;;;;5092622;28;20870;-73
2020/12/18 05:52:09;;;;;;;12.20;7.70;;;;;;;;;;5096459;28;20452;-74
2020/12/18 05:54:39;;;;;;;13.50;7.33;;;;;;;;;;5095319;28;20455;-73
2020/12/18 05:57:12;;;;;;;12.50;6.50;;;;;;;;;;5086614;28;20516;-73
2020/12/18 05:59:43;;;;;;;10.13;6.03;;;;;;;;;;5082012;28;20457;-73
2020/12/18 06:02:14;;;;;;;10.70;6.13;;;;;;;;;;5076013;28;20521;-73
2020/12/18 06:04:42;;;;;;;14.67;6.43;;;;;;;;;;5075980;28;20456;-73
2020/12/18 06:07:10;;;;;;;10.70;6.27;;;;;;;;;;5076207;28;20479;-74
2020/12/18 06:09:42;;;;;;;9.50;6.10;;;;;;;;;;5076293;28;20510;-73
2020/12/18 06:12:12;;;;;;;9.47;5.80;;;;;;;;;;5076920;28;20478;-74
2020/12/18 06:14:41;;;;;;;9.20;6.00;;;;;;;;;;5075966;28;20522;-73
2020/12/18 06:17:11;;;;;;;8.73;5.50;;;;;;;;;;5074759;28;20889;-73
2020/12/18 06:19:39;;;;;;;10.73;6.50;;;;;;;;;;5075687;28;20574;-73
2020/12/18 06:22:17;;;;;;;11.40;6.37;;;;;;;;;;5078773;28;20457;-74
2020/12/18 06:24:49;;;;;;;11.30;6.33;;;;;;;;;;5094643;28;20914;-73
2020/12/18 06:27:17;;;;;;;10.87;7.23;;;;;;;;;;5090060;28;20465;-74
2020/12/18 06:29:45;;;;;;;13.00;6.83;;;;;;;;;;5086771;28;20456;-73
2020/12/18 06:32:22;;;;;;;9.50;6.40;;;;;;;;;;5096726;28;20467;-73
2020/12/18 06:34:52;;;;;;;9.87;6.93;;;;;;;;;;5096441;28;20460;-74
2020/12/18 06:37:26;;;;;;;9.47;6.40;;;;;;;;;;5097315;28;20553;-74
2020/12/18 06:39:55;;;;;;;13.13;7.00;;;;;;;;;;5086244;28;20456;-74
2020/12/18 06:42:23;;;;;;;12.57;6.23;;;;;;;;;;5076538;28;20522;-73
2020/12/18 06:44:51;;;;;;;11.63;6.90;;;;;;;;;;5083055;28;20463;-74
2020/12/18 06:47:29;;;;;;;10.13;6.77;;;;;;;;;;5103766;28;20460;-73
2020/12/18 06:50:03;;;;;;;7.97;5.67;;;;;;;;;;5092729;28;20459;-73
2020/12/18 06:52:47;;;;;;;14.40;6.43;;;;;;;;;;5087225;28;20455;-72
2020/12/18 06:55:17;;;;;;;10.97;5.97;;;;;;;;;;5075751;28;20904;-74
2020/12/18 06:57:44;;;;;;;7.50;5.80;;;;;;;;;;5078642;28;20456;-74
2020/12/18 07:00:31;;;;;;;18.63;7.10;;;;;;;;;;5075743;28;20461;-73
2020/12/18 07:02:59;;;;;;;11.00;5.73;;;;;;;;;;5079215;28;20806;-73
2020/12/18 07:05:33;;;;;;;8.57;5.87;;;;;;;;;;5078236;28;20475;-73
2020/12/18 07:08:03;;;;;;;10.90;6.03;;;;;;;;;;5079443;28;20564;-73
2020/12/18 07:10:32;;;;;;;9.70;6.30;;;;;;;;;;5091217;28;20462;-74
2020/12/18 07:13:00;;;;;;;13.27;6.60;;;;;;;;;;5085548;28;20544;-73
2020/12/18 07:15:45;;;;;;;11.00;7.80;;;;;;;;;;5079486;28;20646;-73
2020/12/18 07:18:14;;;;;;;8.57;5.97;;;;;;;;;;5098175;28;20481;-73
2020/12/18 07:20:45;;;;;;;10.03;6.10;;;;;;;;;;5101221;28;20506;-73
2020/12/18 07:23:13;;;;;;;7.37;5.20;;;;;;;;;;5099222;28;20456;-73
2020/12/18 07:25:43;;;;;;;9.70;6.17;;;;;;;;;;5087214;28;20560;-73
2020/12/18 07:28:11;;;;;;;9.17;5.70;;;;;;;;;;5079332;28;20465;-73
2020/12/18 07:30:39;;;;;;;10.97;6.90;;;;;;;;;;5081286;28;20467;-73
2020/12/18 07:33:12;;;;;;;10.13;6.57;;;;;;;;;;5098673;28;20499;-73
2020/12/18 07:35:43;;;;;;;14.70;6.13;;;;;;;;;;5098438;28;20523;-73
2020/12/18 07:38:18;;;;;;;10.13;6.80;;;;;;;;;;5097591;28;20444;-73
2020/12/18 07:40:46;;;;;;;11.47;6.30;;;;;;;;;;5088217;28;20467;-73
2020/12/18 07:43:18;;;;;;;10.40;6.70;;;;;;;;;;5097639;28;20448;-73
2020/12/18 07:45:46;;;;;;;14.13;6.47;;;;;;;;;;5086376;28;20476;-72
2020/12/18 07:48:15;;;;;;;7.30;5.00;;;;;;;;;;5098666;28;20463;-74
2020/12/18 07:50:55;;;;;;;8.90;5.60;;;;;;;;;;5095572;28;20815;-74
2020/12/18 07:53:23;;;;;;;10.43;7.00;;;;;;;;;;5077458;28;20481;-75
2020/12/18 07:56:09;;;;;;;14.20;6.23;;;;;;;;;;5078073;28;20532;-74
2020/12/18 07:58:45;;;;;;;11.70;6.30;;;;;;;;;;5093909;28;20459;-74
2020/12/18 08:01:15;;;;;;;8.83;6.27;;;;;;;;;;5089604;28;20560;-74
2020/12/18 08:03:48;;;;;;;11.90;6.77;;;;;;;;;;5090744;28;20463;-74
2020/12/18 08:06:19;;;;;;;8.70;5.63;;;;;;;;;;5095564;28;20468;-74
2020/12/18 08:08:50;;;;;;;7.40;5.50;;;;;;;;;;5088074;28;20452;-73
2020/12/18 08:11:21;;;;;;;10.63;6.07;;;;;;;;;;5092786;28;20757;-73
2020/12/18 08:13:52;;;;;;;11.03;6.47;;;;;;;;;;5077750;28;20884;-73
2020/12/18 08:16:24;;;;;;;8.13;5.07;;;;;;;;;;5077019;28;20481;-73
2020/12/18 08:18:52;;;;;;;8.63;5.90;;;;;;;;;;5077134;28;20454;-73
2020/12/18 08:21:23;;;;;;;10.17;5.87;;;;;;;;;;5077521;28;20530;-73
2020/12/18 08:23:56;;;;;;;8.50;5.80;;;;;;;;;;5078952;28;20479;-73
2020/12/18 08:26:26;;;;;;;8.77;6.60;;;;;;;;;;5077255;28;20472;-73
2020/12/18 08:28:54;;;;;;;10.13;6.37;;;;;;;;;;5077597;28;20453;-73
2020/12/18 08:31:21;;;;;;;12.10;6.30;;;;;;;;;;5077504;28;20465;-73
2020/12/18 08:33:53;;;;;;;15.10;7.30;;;;;;;;;;5078653;28;20535;-74
2020/12/18 08:36:23;;;;;;;10.30;6.23;;;;;;;;;;5080348;28;20486;-73
2020/12/18 08:39:04;;;;;;;11.37;6.67;;;;;;;;;;5077606;28;20463;-73
2020/12/18 08:41:46;;;;;;;8.07;5.87;;;;;;;;;;5077202;28;20469;-73
2020/12/18 08:44:14;;;;;;;8.53;5.37;;;;;;;;;;5076061;28;20510;-73
2020/12/18 08:46:43;;;;;;;8.27;5.83;;;;;;;;;;5087993;28;20464;-73
2020/12/18 08:49:14;;;;;;;11.63;5.90;;;;;;;;;;5079105;28;20449;-72
2020/12/18 08:51:43;;;;;;;8.73;5.10;;;;;;;;;;5076881;28;20490;-72
2020/12/18 08:54:24;;;;;;;8.33;5.33;;;;;;;;;;5077664;28;20453;-73
2020/12/18 08:57:06;;;;;;;8.73;5.30;;;;;;;;;;5078111;28;20496;-73
2020/12/18 08:59:34;;;;;;;5.73;4.77;;;;;;;;;;5080150;28;20515;-73
2020/12/18 09:02:01;;;;;;;7.57;5.50;;;;;;;;;;5086343;28;20449;-73
2020/12/18 09:04:29;;;;;;;8.60;5.33;;;;;;;;;;5078524;28;20487;-73
2020/12/18 09:06:56;;;;;;;8.80;5.27;;;;;;;;;;5077344;28;20456;-73
2020/12/18 09:09:29;;;;;;;8.10;5.30;;;;;;;;;;5081835;28;20463;-73
2020/12/18 09:12:14;;;;;;;5.60;4.63;;;;;;;;;;5095424;28;20475;-71
2020/12/18 09:14:52;;;;;;;7.70;5.10;;;;;;;;;;5076918;28;20724;-73
2020/12/18 09:17:19;;;;;;;10.80;6.00;;;;;;;;;;5086350;28;20553;-73
2020/12/18 09:19:50;;;;;;;11.87;5.07;;;;;;;;;;5095768;28;20456;-73
2020/12/18 09:22:20;;;;;;;10.80;6.17;;;;;;;;;;5078180;28;20449;-71
2020/12/18 09:25:27;;;;;;;8.43;4.70;;;;;;;;;;5076321;28;20449;-72
2020/12/18 09:27:59;;;;;;;6.83;4.33;;;;;;;;;;5080301;28;20469;-72
2020/12/18 09:30:36;;;;;;;6.13;3.73;;;;;;;;;;5076538;28;20461;-73
2020/12/18 09:36:28;;;;;;;6.00;4.30;;;;;;;;;;5075846;28;20531;-74
2020/12/18 09:41:58;;;;;;;9.57;4.20;;;;;;;;;;5078561;28;20505;-72
2020/12/18 09:44:43;;;;;;;5.43;3.47;;;;;;;;;;5083988;28;20534;-73
2020/12/18 09:47:27;;;;;;;12.50;5.17;;;;;;;;;;5083127;28;20897;-75
2020/12/18 09:50:03;;;;;;;7.53;4.73;;;;;;;;;;5076107;28;21071;-73
2020/12/18 09:52:52;;;;;;;;;;;;;;;;;;;;;
2020/12/18 09:55:23;;;;;;;6.33;4.00;;;;;;;;;;5094819;28;20456;-74
2020/12/18 09:57:51;;;;;;;6.40;3.80;;;;;;;;;;5085170;28;20726;-75
2020/12/18 10:00:21;;;;;;;5.47;4.33;;;;;;;;;;5074618;28;20484;-74
2020/12/18 10:02:56;;;;;;;7.90;4.80;;;;;;;;;;5075929;28;21029;-75
2020/12/18 10:05:36;;;;;;;7.73;4.53;;;;;;;;;;5076010;28;20472;-75
2020/12/18 10:08:10;;;;;;;5.80;3.80;;;;;;;;;;5094613;28;20472;-75
2020/12/18 10:10:37;;;;;;;5.83;3.13;;;;;;;;;;5092295;28;20529;-74
2020/12/18 10:13:06;;;;;;;5.33;3.87;;;;;;;;;;5089340;28;20463;-74
2020/12/18 10:15:37;;;;;;;5.90;4.10;;;;;;;;;;5081596;28;20550;-74
2020/12/18 10:18:11;;;;;;;4.67;3.57;;;;;;;;;;5084476;28;20703;-74
2020/12/18 10:20:39;;;;;;;6.53;3.30;;;;;;;;;;5074808;28;20513;-74
2020/12/18 10:23:07;;;;;;;5.23;3.30;;;;;;;;;;5075333;28;20514;-74
2020/12/18 10:25:34;;;;;;;6.97;3.23;;;;;;;;;;5075497;28;20460;-74
2020/12/18 10:28:02;;;;;;;4.57;2.93;;;;;;;;;;5075189;28;20837;-74
2020/12/18 10:30:29;;;;;;;6.53;2.97;;;;;;;;;;5075404;28;20461;-74
2020/12/18 10:32:57;;;;;;;4.63;2.90;;;;;;;;;;5074353;28;20456;-76
2020/12/18 10:35:25;;;;;;;7.03;3.00;;;;;;;;;;5073461;28;20491;-75
2020/12/18 10:37:54;;;;;;;5.00;3.27;;;;;;;;;;5078043;28;20481;-75
2020/12/18 10:40:22;;;;;;;5.93;3.03;;;;;;;;;;5078574;28;20464;-74
2020/12/18 10:42:50;;;;;;;7.93;3.10;;;;;;;;;;5081643;28;20456;-75
2020/12/18 10:45:18;;;;;;;5.73;2.80;;;;;;;;;;5077702;28;20503;-75
2020/12/18 10:47:58;;;;;;;6.80;2.70;;;;;;;;;;5078861;28;20453;-74
2020/12/18 10:50:27;;;;;;;6.67;3.70;;;;;;;;;;5080449;28;20456;-74
2020/12/18 10:52:54;;;;;;;5.50;2.93;;;;;;;;;;5085250;28;20694;-74
2020/12/18 10:55:22;;;;;;;4.23;3.33;;;;;;;;;;5084493;28;20530;-74
2020/12/18 10:58:03;;;;;;;8.40;3.37;;;;;;;;;;5093660;28;20559;-74
2020/12/18 11:00:45;;;;;;;7.63;3.93;;;;;;;;;;5080892;28;20464;-74
2020/12/18 11:03:27;;;;;;;7.83;2.60;;;;;;;;;;5089613;28;20460;-74
2020/12/18 11:06:17;;;;;;;3.90;2.60;;;;;;;;;;5099032;28;20505;-74
2020/12/18 11:08:45;;;;;;;6.13;2.53;;;;;;;;;;5098397;28;20895;-74
2020/12/18 11:11:16;;;;;;;4.40;2.20;;;;;;;;;;5098548;28;20529;-74
2020/12/18 11:13:43;;;;;;;6.40;3.17;;;;;;;;;;5098690;28;20488;-74
2020/12/18 11:16:13;;;;;;;5.20;2.97;;;;;;;;;;5086880;28;20480;-75
2020/12/18 11:18:48;;;;;;;5.47;2.83;;;;;;;;;;5088315;28;20461;-75
2020/12/18 11:21:21;;;;;;;5.57;2.63;;;;;;;;;;5077796;28;20460;-75
2020/12/18 11:23:53;;;;;;;5.83;2.80;;;;;;;;;;5078870;28;20752;-74
2020/12/18 11:26:24;;;;;;;6.97;2.83;;;;;;;;;;5078648;28;20567;-77
2020/12/18 11:28:51;;;;;;;4.80;2.80;;;;;;;;;;5077880;28;20518;-75
2020/12/18 11:31:19;;;;;;;8.43;2.73;;;;;;;;;;5092305;28;21076;-75
2020/12/18 11:33:57;;;;;;;4.73;2.83;;;;;;;;;;5098360;28;20444;-75
2020/12/18 11:36:24;;;;;;;8.83;3.23;;;;;;;;;;5080902;28;20492;-75
2020/12/18 11:38:53;;;;;;;4.03;2.27;;;;;;;;;;5088622;28;20464;-74
2020/12/18 11:41:21;;;;;;;7.87;2.40;;;;;;;;;;5082951;28;20460;-74
2020/12/18 11:43:58;;;;;;;8.37;2.20;;;;;;;;;;5078875;28;20472;-76
2020/12/18 11:46:26;;;;;;;4.90;2.53;;;;;;;;;;5079779;28;20563;-75
2020/12/18 11:49:01;;;;;;;4.53;2.30;;;;;;;;;;5075921;28;21079;-74
2020/12/18 11:51:58;;;;;;;6.30;2.27;;;;;;;;;;5090664;28;20454;-73
2020/12/18 11:54:31;;;;;;;3.63;2.20;;;;;;;;;;5055712;28;20522;-74
2020/12/18 11:57:00;;;;;;;3.50;1.80;;;;;;;;;;5079628;28;20581;-75
2020/12/18 11:59:59;;;;;;;5.90;2.30;;;;;;;;;;5085549;28;20457;-75
2020/12/18 12:05:45;;;;;;;5.00;2.30;;;;;;;;;;5069231;28;20470;-75
2020/12/18 12:08:18;;;;;;;7.77;2.37;;;;;;;;;;5074161;28;20506;-74
2020/12/18 12:10:51;;;;;;;6.50;2.70;;;;;;;;;;5075318;28;20503;-75
2020/12/18 12:13:21;;;;;;;3.07;1.87;;;;;;;;;;5074373;28;20580;-74
2020/12/18 12:16:03;;;;;;;6.53;2.23;;;;;;;;;;5088450;28;20495;-75
2020/12/18 12:18:31;;;;;;;5.50;1.90;;;;;;;;;;5076017;28;20580;-74
2020/12/18 12:21:02;;;;;;;5.27;2.70;;;;;;;;;;5074736;28;20861;-74
2020/12/18 12:23:33;;;;;;;5.50;2.43;;;;;;;;;;5082484;28;20567;-74
2020/12/18 12:26:04;;;;;;;8.80;4.17;;;;;;;;;;5084039;28;20485;-74
2020/12/18 12:28:32;;;;;;;5.30;2.23;;;;;;;;;;5075021;28;20742;-73
2020/12/18 12:31:03;;;;;;;6.27;2.67;;;;;;;;;;5079845;28;20456;-75
2020/12/18 12:33:33;;;;;;;3.27;2.17;;;;;;;;;;5093622;28;20468;-74
2020/12/18 12:36:01;;;;;;;3.80;1.90;;;;;;;;;;5076089;28;20901;-75
2020/12/18 12:38:31;;;;;;;7.17;3.10;;;;;;;;;;5075357;28;20460;-75
2020/12/18 12:40:59;;;;;;;5.83;2.77;;;;;;;;;;5074755;28;20530;-74
2020/12/18 12:43:30;;;;;;;5.20;2.40;;;;;;;;;;5074297;28;20476;-74
2020/12/18 12:45:58;;;;;;;5.60;2.13;;;;;;;;;;5075119;28;20472;-74
2020/12/18 12:48:29;;;;;;;8.07;2.50;;;;;;;;;;5077933;28;20824;-74
2020/12/18 12:51:01;;;;;;;4.27;2.33;;;;;;;;;;5095244;28;20494;-75
2020/12/18 12:53:31;;;;;;;7.50;2.23;;;;;;;;;;5094625;28;20482;-74
2020/12/18 12:56:09;;;;;;;4.00;2.90;;;;;;;;;;5089584;28;20939;-73
2020/12/18 12:58:39;;;;;;;7.53;2.90;;;;;;;;;;5077345;28;20463;-73
2020/12/18 13:01:10;;;;;;;4.13;1.70;;;;;;;;;;5081701;28;20521;-75
2020/12/18 13:03:37;;;;;;;7.73;2.40;;;;;;;;;;5087821;28;20500;-76
2020/12/18 13:06:15;;;;;;;3.60;1.40;;;;;;;;;;5073693;28;20458;-75
2020/12/18 13:09:10;;;;;;;6.40;2.90;;;;;;;;;;5045819;28;20468;-75
2020/12/18 13:11:38;;;;;;;9.17;2.57;;;;;;;;;;5081850;28;20452;-75
2020/12/18 13:17:06;;;;;;;3.50;2.33;;;;;;;;;;5075518;28;20551;-76
2020/12/18 13:19:41;;;;;;;3.53;2.33;;;;;;;;;;5082648;28;20488;-77
2020/12/18 13:22:17;;;;;;;3.80;1.90;;;;;;;;;;5055240;28;20954;-74
2020/12/18 13:25:01;;;;;;;5.23;2.43;;;;;;;;;;5056833;28;20477;-76
2020/12/18 13:27:31;;;;;;;4.67;2.23;;;;;;;;;;5054903;28;20458;-75
2020/12/18 13:36:10;;;;;;;9.93;2.20;;;;;;;;;;5035691;28;20901;-75
2020/12/18 13:38:45;;;;;;;6.00;2.57;;;;;;;;;;5038125;28;20464;-75
2020/12/18 13:41:15;;;;;;;7.00;1.80;;;;;;;;;;5055916;28;20887;-76
2020/12/18 13:43:46;;;;;;;5.33;2.60;;;;;;;;;;5053901;28;20488;-76
2020/12/18 13:46:16;;;;;;;4.80;1.80;;;;;;;;;;5071636;28;21054;-75
2020/12/18 13:48:52;;;;;;;4.20;2.30;;;;;;;;;;5069112;28;20517;-77
2020/12/18 13:51:21;;;;;;;9.40;5.07;;;;;;;;;;5074510;28;20534;-75
2020/12/18 13:53:48;;;;;;;4.00;2.20;;;;;;;;;;5073590;28;20496;-75
2020/12/18 13:56:19;;;;;;;3.83;2.60;;;;;;;;;;5054706;28;20505;-75
2020/12/18 13:58:46;;;;;;;6.30;2.50;;;;;;;;;;5067184;28;20523;-75
2020/12/18 14:01:22;;;;;;;4.60;2.23;;;;;;;;;;5063858;28;20931;-74
2020/12/18 14:03:53;;;;;;;5.70;3.03;;;;;;;;;;5066366;28;20472;-75
2020/12/18 14:06:25;;;;;;;7.03;2.67;;;;;;;;;;5058325;28;20457;-75
2020/12/18 14:09:26;;;;;;;7.07;2.83;;;;;;;;;;5072922;28;20575;-74
2020/12/18 14:11:56;;;;;;;5.67;2.50;;;;;;;;;;5061079;28;20523;-75
2020/12/18 14:14:36;;;;;;;4.60;2.80;;;;;;;;;;5071553;28;20468;-74
2020/12/18 14:17:12;;;;;;;4.40;2.70;;;;;;;;;;5080580;28;20494;-74
2020/12/18 14:19:47;;;;;;;5.60;2.73;;;;;;;;;;5067946;28;20463;-77
2020/12/18 14:25:23;;;;;;;6.23;3.23;;;;;;;;;;5045641;28;20475;-75
2020/12/18 14:28:03;;;;;;;5.77;2.77;;;;;;;;;;5061453;28;20457;-75
2020/12/18 14:30:30;;;;;;;5.77;2.47;;;;;;;;;;5061781;28;20465;-75
2020/12/18 14:33:02;;;;;;;5.40;2.90;;;;;;;;;;5063531;28;20460;-76
2020/12/18 14:35:30;;;;;;;6.70;4.10;;;;;;;;;;5063381;28;20495;-76
2020/12/18 14:38:18;;;;;;;5.20;3.07;;;;;;;;;;5063203;28;20492;-75
2020/12/18 14:41:01;;;;;;;10.80;3.80;;;;;;;;;;5060656;28;21029;-74
2020/12/18 14:43:56;;;;;;;7.27;3.60;;;;;;;;;;5081573;28;20466;-75
2020/12/18 14:51:52;;;;;;;5.77;2.43;;;;;;;;;;5061635;28;20294;-74
2020/12/18 14:58:15;;;;;;;5.03;2.50;;;;;;;;;;5067164;28;20501;-74
2020/12/18 15:03:36;;;;;;;3.27;1.87;;;;;;;;;;5039401;28;20898;-74
2020/12/18 15:12:58;;;;;;;8.33;2.13;;;;;;;;;;4997272;28;20451;-73
2020/12/18 15:19:06;;;;;;;7.40;2.80;;;;;;;;;;5026335;28;20468;-75
2020/12/18 15:21:52;;;;;;;8.43;2.23;;;;;;;;;;5019050;28;20541;-75
2020/12/18 15:24:46;;;;;;;7.10;2.83;;;;;;;;;;5022111;28;20447;-75
2020/12/18 15:27:18;;;;;;;4.43;2.30;;;;;;;;;;5029576;28;20482;-74
2020/12/18 15:29:59;;;;;;;6.60;2.47;;;;;;;;;;5056840;28;20441;-75
2020/12/18 15:32:29;;;;;;;4.50;2.60;;;;;;;;;;5081160;28;20483;-75
2020/12/18 15:35:14;;;;;;;6.10;3.47;;;;;;;;;;5098351;28;20527;-75
2020/12/18 15:48:03;;;;;;;7.40;3.90;;;;;;;;;;4980017;28;20953;-73
2020/12/18 16:05:41;;;;;;;;;;;;;;;;;;;;;
2020/12/18 16:08:37;;;;;;;7.03;4.47;;;;;;;;;;5039067;28;20457;-73
2020/12/18 16:14:35;;;;;;;8.47;4.73;;;;;;;;;;5084558;28;20480;-74
2020/12/18 16:33:51;;;;;;;8.23;6.40;;;;;;;;;;5065308;28;20731;-73